createdAt,value
2018-04-16T00:00:02.533Z,13.15
2018-04-16T00:02:36.087Z,13.15
2018-04-16T00:05:09.616Z,13.16
2018-04-16T00:07:43.162Z,13.15
2018-04-16T00:10:16.988Z,13.18
2018-04-16T00:12:50.513Z,13.14
2018-04-16T00:15:24.217Z,13.13
2018-04-16T00:17:57.972Z,13.13
2018-04-16T00:20:31.729Z,13.12
2018-04-16T00:23:05.376Z,13.05
2018-04-16T00:25:39.133Z,13.00
2018-04-16T00:28:12.876Z,12.87
2018-04-16T00:30:46.427Z,12.78
2018-04-16T00:33:25.632Z,12.75
2018-04-16T00:36:04.808Z,12.72
2018-04-16T00:38:44.043Z,12.69
2018-04-16T00:41:23.435Z,12.65
2018-04-16T00:44:02.904Z,12.65
2018-04-16T00:46:42.245Z,12.79
2018-04-16T00:49:21.515Z,12.87
2018-04-16T00:52:00.849Z,12.96
2018-04-16T00:54:40.152Z,12.95
2018-04-16T00:57:19.278Z,12.92
2018-04-16T00:59:58.690Z,12.91
2018-04-16T01:05:38.252Z,12.87
2018-04-16T01:08:17.716Z,12.86
2018-04-16T01:10:57.239Z,12.84
2018-04-16T01:16:41.558Z,12.81
2018-04-16T01:19:20.868Z,12.75
2018-04-16T01:22:00.336Z,12.79
2018-04-16T01:24:39.724Z,12.77
2018-04-16T01:27:18.852Z,12.66
2018-04-16T01:29:58.334Z,12.59
2018-04-16T01:32:37.512Z,12.49
2018-04-16T01:35:16.764Z,12.46
2018-04-16T01:37:56.076Z,12.43
2018-04-16T01:40:35.493Z,12.48
2018-04-16T01:43:14.716Z,12.45
2018-04-16T01:45:57.013Z,12.33
2018-04-16T01:48:36.177Z,12.29
2018-04-16T01:51:15.616Z,12.30
2018-04-16T01:53:54.729Z,12.29
2018-04-16T01:56:33.953Z,12.33
2018-04-16T01:59:13.258Z,12.26
2018-04-16T02:01:52.631Z,12.16
2018-04-16T02:04:32.018Z,12.10
2018-04-16T02:07:11.385Z,12.03
2018-04-16T02:09:50.725Z,12.06
2018-04-16T02:12:30.287Z,11.95
2018-04-16T02:15:09.843Z,11.96
2018-04-16T02:17:49.437Z,11.99
2018-04-16T02:20:28.996Z,11.90
2018-04-16T02:26:08.220Z,11.80
2018-04-16T02:31:52.640Z,11.68
2018-04-16T02:34:31.840Z,11.58
2018-04-16T02:37:11.091Z,11.53
2018-04-16T02:39:50.452Z,11.39
2018-04-16T02:45:31.885Z,11.27
2018-04-16T02:48:11.172Z,11.19
2018-04-16T02:50:50.318Z,11.10
2018-04-16T02:53:29.562Z,11.02
2018-04-16T02:56:08.897Z,10.99
2018-04-16T02:58:48.312Z,10.85
2018-04-16T03:01:27.551Z,10.74
2018-04-16T03:04:06.798Z,10.60
2018-04-16T03:06:46.047Z,10.53
2018-04-16T03:09:25.399Z,10.44
2018-04-16T03:12:04.895Z,10.41
2018-04-16T03:14:44.213Z,10.36
2018-04-16T03:17:23.574Z,10.51
2018-04-16T03:20:02.931Z,10.54
2018-04-16T03:22:42.323Z,10.56
2018-04-16T03:25:21.593Z,10.66
2018-04-16T03:28:01.052Z,10.64
2018-04-16T03:30:40.398Z,10.65
2018-04-16T03:33:19.832Z,10.64
2018-04-16T03:35:59.346Z,10.63
2018-04-16T03:38:38.659Z,10.62
2018-04-16T03:41:17.824Z,10.58
2018-04-16T03:43:57.085Z,10.54
2018-04-16T03:46:36.277Z,10.56
2018-04-16T03:52:15.719Z,10.55
2018-04-16T03:54:55.008Z,10.49
2018-04-16T03:57:28.720Z,10.50
2018-04-16T04:00:02.322Z,10.61
2018-04-16T04:02:35.933Z,10.62
2018-04-16T04:05:09.616Z,10.60
2018-04-16T04:07:43.233Z,10.61
2018-04-16T04:10:16.923Z,10.66
2018-04-16T04:12:50.680Z,10.72
2018-04-16T04:15:24.240Z,10.76
2018-04-16T04:17:57.813Z,10.84
2018-04-16T04:20:31.506Z,10.86
2018-04-16T04:23:16.916Z,10.94
2018-04-16T04:26:02.541Z,11.01
2018-04-16T04:28:48.344Z,11.06
2018-04-16T04:31:21.980Z,11.10
2018-04-16T04:33:55.781Z,11.18
2018-04-16T04:36:29.550Z,11.15
2018-04-16T04:39:03.069Z,11.12
2018-04-16T04:41:36.695Z,11.14
2018-04-16T04:44:10.255Z,11.11
2018-04-16T04:47:02.897Z,11.20
2018-04-16T04:49:36.600Z,11.29
2018-04-16T04:52:10.339Z,11.33
2018-04-16T04:54:44.202Z,11.37
2018-04-16T04:57:17.842Z,11.44
2018-04-16T04:59:51.652Z,11.48
2018-04-16T05:02:25.296Z,11.46
2018-04-16T05:04:58.869Z,11.47
2018-04-16T05:07:32.430Z,11.48
2018-04-16T05:10:06.107Z,11.40
2018-04-16T05:12:39.708Z,11.40
2018-04-16T05:15:13.447Z,11.35
2018-04-16T05:17:47.097Z,11.32
2018-04-16T05:20:20.740Z,11.36
2018-04-16T05:22:54.427Z,11.41
2018-04-16T05:25:27.946Z,11.49
2018-04-16T05:28:01.679Z,11.52
2018-04-16T05:30:35.589Z,11.67
2018-04-16T05:33:09.186Z,11.80
2018-04-16T05:35:42.928Z,11.85
2018-04-16T05:38:16.688Z,11.97
2018-04-16T05:40:50.319Z,12.04
2018-04-16T05:43:23.954Z,12.07
2018-04-16T05:45:57.496Z,12.27
2018-04-16T05:48:31.491Z,12.43
2018-04-16T05:51:05.106Z,12.73
2018-04-16T05:53:38.743Z,12.78
2018-04-16T05:56:12.322Z,12.89
2018-04-16T05:58:46.003Z,12.66
2018-04-16T06:01:19.676Z,12.75
2018-04-16T06:03:53.271Z,12.62
2018-04-16T06:06:27.093Z,12.74
2018-04-16T06:09:00.862Z,12.81
2018-04-16T06:11:34.511Z,12.92
2018-04-16T06:14:08.362Z,12.98
2018-04-16T06:16:41.994Z,13.08
2018-04-16T06:19:15.548Z,13.13
2018-04-16T06:21:49.193Z,13.14
2018-04-16T06:24:22.726Z,13.27
2018-04-16T06:26:56.572Z,13.25
2018-04-16T06:29:30.120Z,13.24
2018-04-16T06:32:03.811Z,13.51
2018-04-16T06:34:37.555Z,14.48
2018-04-16T06:37:11.328Z,14.99
2018-04-16T06:39:45.093Z,16.13
2018-04-16T06:42:18.616Z,17.46
2018-04-16T06:44:52.212Z,17.38
2018-04-16T06:47:25.782Z,17.05
2018-04-16T06:49:59.616Z,17.07
2018-04-16T06:52:33.272Z,16.75
2018-04-16T06:55:07.293Z,16.20
2018-04-16T06:57:40.878Z,15.43
2018-04-16T07:00:14.589Z,15.66
2018-04-16T07:02:48.291Z,15.12
2018-04-16T07:05:21.956Z,15.04
2018-04-16T07:07:55.656Z,14.97
2018-04-16T07:10:29.457Z,15.11
2018-04-16T07:13:03.220Z,15.13
2018-04-16T07:15:36.762Z,14.90
2018-04-16T07:18:10.551Z,14.52
2018-04-16T07:20:44.303Z,14.51
2018-04-16T07:23:17.920Z,14.43
2018-04-16T07:25:51.516Z,14.47
2018-04-16T07:28:25.259Z,14.72
2018-04-16T07:30:59.067Z,14.77
2018-04-16T07:33:32.727Z,15.11
2018-04-16T07:36:06.499Z,15.24
2018-04-16T07:38:40.052Z,16.14
2018-04-16T07:41:13.576Z,16.04
2018-04-16T07:43:47.167Z,16.97
2018-04-16T07:46:20.896Z,18.30
2018-04-16T07:48:54.553Z,19.79
2018-04-16T07:51:28.113Z,20.82
2018-04-16T07:54:01.861Z,21.33
2018-04-16T07:56:35.470Z,21.03
2018-04-16T07:59:09.160Z,19.29
2018-04-16T08:01:42.913Z,18.65
2018-04-16T08:04:16.565Z,18.21
2018-04-16T08:06:50.116Z,18.43
2018-04-16T08:09:23.653Z,18.02
2018-04-16T08:11:57.198Z,17.49
2018-04-16T08:14:30.851Z,18.02
2018-04-16T08:17:04.614Z,17.44
2018-04-16T08:19:38.177Z,18.09
2018-04-16T08:22:11.993Z,18.56
2018-04-16T08:24:45.757Z,18.45
2018-04-16T08:27:19.352Z,19.47
2018-04-16T08:29:53.037Z,18.17
2018-04-16T08:32:26.704Z,19.13
2018-04-16T08:35:00.465Z,18.35
2018-04-16T08:37:34.127Z,18.07
2018-04-16T08:40:07.700Z,17.86
2018-04-16T08:42:41.419Z,18.50
2018-04-16T08:45:15.082Z,18.26
2018-04-16T08:47:48.745Z,17.80
2018-04-16T08:50:22.534Z,17.42
2018-04-16T08:52:56.072Z,17.42
2018-04-16T08:55:29.961Z,17.61
2018-04-16T08:58:03.473Z,18.44
2018-04-16T09:00:37.159Z,18.03
2018-04-16T09:03:10.898Z,17.91
2018-04-16T09:05:44.519Z,17.79
2018-04-16T09:08:18.120Z,18.23
2018-04-16T09:10:51.999Z,18.08
2018-04-16T09:13:25.661Z,18.22
2018-04-16T09:15:59.249Z,19.73
2018-04-16T09:18:32.912Z,20.07
2018-04-16T09:21:06.517Z,20.76
2018-04-16T09:23:40.334Z,21.05
2018-04-16T09:26:13.976Z,22.61
2018-04-16T09:28:47.584Z,22.26
2018-04-16T09:31:21.408Z,21.65
2018-04-16T09:33:55.184Z,23.47
2018-04-16T09:36:28.753Z,21.99
2018-04-16T09:39:02.385Z,20.96
2018-04-16T09:41:36.000Z,19.96
2018-04-16T09:44:09.557Z,19.50
2018-04-16T09:46:43.207Z,19.50
2018-04-16T09:49:16.880Z,19.38
2018-04-16T09:51:50.588Z,19.28
2018-04-16T09:54:24.168Z,19.38
2018-04-16T09:56:57.716Z,18.40
2018-04-16T09:59:31.244Z,18.34
2018-04-16T10:02:10.500Z,19.15
2018-04-16T10:04:44.152Z,18.76
2018-04-16T10:07:17.724Z,18.84
2018-04-16T10:09:51.384Z,19.01
2018-04-16T10:12:25.026Z,18.54
2018-04-16T10:14:58.840Z,19.29
2018-04-16T10:17:32.539Z,20.07
2018-04-16T10:20:06.079Z,19.97
2018-04-16T10:22:39.778Z,19.07
2018-04-16T10:25:13.553Z,18.86
2018-04-16T10:27:47.089Z,18.64
2018-04-16T10:30:20.811Z,18.99
2018-04-16T10:32:54.341Z,19.37
2018-04-16T10:35:28.059Z,21.20
2018-04-16T10:38:01.849Z,20.89
2018-04-16T10:40:35.427Z,21.14
2018-04-16T10:43:09.189Z,20.49
2018-04-16T10:45:42.872Z,19.65
2018-04-16T10:48:16.540Z,19.77
2018-04-16T10:50:50.257Z,19.41
2018-04-16T10:53:24.063Z,19.17
2018-04-16T10:55:57.754Z,19.36
2018-04-16T10:58:31.304Z,18.38
2018-04-16T11:01:04.878Z,18.88
2018-04-16T11:03:38.711Z,18.82
2018-04-16T11:06:12.513Z,18.38
2018-04-16T11:08:46.029Z,18.34
2018-04-16T11:11:19.592Z,18.21
2018-04-16T11:13:53.222Z,18.98
2018-04-16T11:16:26.885Z,19.61
2018-04-16T11:19:00.398Z,20.27
2018-04-16T11:21:34.149Z,19.76
2018-04-16T11:24:08.193Z,18.76
2018-04-16T11:26:41.726Z,18.44
2018-04-16T11:29:15.380Z,18.68
2018-04-16T11:31:49.085Z,18.63
2018-04-16T11:34:22.714Z,18.69
2018-04-16T11:36:56.457Z,18.59
2018-04-16T11:39:30.117Z,19.49
2018-04-16T11:42:03.905Z,18.91
2018-04-16T11:44:37.645Z,19.49
2018-04-16T11:50:25.414Z,19.51
2018-04-16T11:52:59.188Z,19.19
2018-04-16T11:55:32.753Z,19.01
2018-04-16T11:58:06.397Z,19.00
2018-04-16T12:00:39.977Z,19.20
2018-04-16T12:03:13.666Z,19.19
2018-04-16T12:05:47.610Z,18.84
2018-04-16T12:08:21.135Z,18.50
2018-04-16T12:10:54.786Z,18.94
2018-04-16T12:13:28.377Z,19.53
2018-04-16T12:16:02.074Z,19.36
2018-04-16T12:18:35.829Z,19.46
2018-04-16T12:21:09.393Z,19.51
2018-04-16T12:23:43.024Z,18.83
2018-04-16T12:26:16.680Z,18.76
2018-04-16T12:28:50.340Z,19.21
2018-04-16T12:31:23.917Z,19.10
2018-04-16T12:33:57.464Z,18.89
2018-04-16T12:36:31.173Z,19.22
2018-04-16T12:39:05.452Z,19.27
2018-04-16T12:41:39.010Z,19.37
2018-04-16T12:44:12.755Z,18.75
2018-04-16T12:46:46.563Z,18.96
2018-04-16T12:49:20.266Z,19.40
2018-04-16T12:51:53.952Z,19.33
2018-04-16T12:54:27.667Z,19.00
2018-04-16T12:57:01.399Z,18.84
2018-04-16T12:59:35.133Z,19.00
2018-04-16T13:02:08.840Z,18.48
2018-04-16T13:04:42.437Z,18.57
2018-04-16T13:07:16.268Z,18.64
2018-04-16T13:09:50.032Z,19.14
2018-04-16T13:12:23.734Z,19.37
2018-04-16T13:14:57.588Z,19.43
2018-04-16T13:17:31.186Z,19.41
2018-04-16T13:20:04.992Z,19.39
2018-04-16T13:22:38.660Z,19.57
2018-04-16T13:25:12.386Z,19.14
2018-04-16T13:27:45.982Z,18.66
2018-04-16T13:30:19.579Z,18.73
2018-04-16T13:32:53.223Z,19.19
2018-04-16T13:35:26.832Z,19.27
2018-04-16T13:38:00.498Z,19.28
2018-04-16T13:40:34.202Z,19.05
2018-04-16T13:43:07.916Z,18.93
2018-04-16T13:45:41.586Z,18.72
2018-04-16T13:48:15.250Z,18.54
2018-04-16T13:50:48.955Z,18.45
2018-04-16T13:53:22.680Z,18.19
2018-04-16T13:55:56.365Z,18.23
2018-04-16T13:58:30.126Z,17.94
2018-04-16T14:01:03.834Z,17.72
2018-04-16T14:03:37.713Z,17.77
2018-04-16T14:06:11.470Z,17.82
2018-04-16T14:08:45.241Z,17.69
2018-04-16T14:11:18.781Z,17.81
2018-04-16T14:13:52.328Z,17.94
2018-04-16T14:16:26.009Z,18.08
2018-04-16T14:18:59.715Z,18.14
2018-04-16T14:21:33.424Z,18.81
2018-04-16T14:24:07.157Z,19.49
2018-04-16T14:26:40.862Z,19.88
2018-04-16T14:29:14.638Z,19.65
2018-04-16T14:31:48.300Z,20.40
2018-04-16T14:34:22.105Z,21.53
2018-04-16T14:36:55.730Z,22.74
2018-04-16T14:39:29.587Z,23.62
2018-04-16T14:42:03.364Z,23.52
2018-04-16T14:44:36.942Z,23.61
2018-04-16T14:47:10.509Z,22.47
2018-04-16T14:49:44.113Z,21.43
2018-04-16T14:52:17.738Z,20.92
2018-04-16T14:54:51.481Z,22.21
2018-04-16T14:57:25.167Z,22.10
2018-04-16T14:59:58.846Z,21.51
2018-04-16T15:02:32.417Z,21.48
2018-04-16T15:05:06.132Z,22.43
2018-04-16T15:07:39.720Z,22.77
2018-04-16T15:10:13.471Z,21.71
2018-04-16T15:12:47.135Z,22.37
2018-04-16T15:15:21.663Z,21.70
2018-04-16T15:17:55.441Z,20.62
2018-04-16T15:20:29.105Z,20.03
2018-04-16T15:23:02.660Z,20.13
2018-04-16T15:25:36.440Z,19.62
2018-04-16T15:28:10.101Z,19.81
2018-04-16T15:30:44.161Z,20.37
2018-04-16T15:33:17.716Z,20.38
2018-04-16T15:35:51.395Z,20.36
2018-04-16T15:38:24.907Z,19.77
2018-04-16T15:40:58.439Z,19.66
2018-04-16T15:43:32.161Z,19.22
2018-04-16T15:46:05.764Z,18.99
2018-04-16T15:48:39.316Z,19.06
2018-04-16T15:51:12.931Z,20.14
2018-04-16T15:53:46.581Z,20.96
2018-04-16T15:56:20.349Z,20.96
2018-04-16T15:58:53.956Z,20.20
2018-04-16T16:01:27.823Z,19.35
2018-04-16T16:04:01.410Z,19.19
2018-04-16T16:06:35.084Z,18.85
2018-04-16T16:09:08.692Z,18.82
2018-04-16T16:11:42.445Z,18.81
2018-04-16T16:14:16.140Z,18.63
2018-04-16T16:16:49.855Z,18.62
2018-04-16T16:19:23.596Z,18.14
2018-04-16T16:21:57.376Z,18.07
2018-04-16T16:24:30.950Z,17.94
2018-04-16T16:27:04.492Z,17.75
2018-04-16T16:29:38.161Z,17.78
2018-04-16T16:32:11.734Z,17.83
2018-04-16T16:34:45.557Z,17.74
2018-04-16T16:37:19.201Z,17.90
2018-04-16T16:39:52.756Z,17.83
2018-04-16T16:42:26.384Z,17.46
2018-04-16T16:44:59.985Z,17.34
2018-04-16T16:47:33.561Z,17.26
2018-04-16T16:50:07.336Z,17.21
2018-04-16T16:52:41.179Z,17.11
2018-04-16T16:55:14.943Z,17.05
2018-04-16T16:57:48.695Z,17.05
2018-04-16T17:00:22.256Z,16.98
2018-04-16T17:02:55.815Z,16.94
2018-04-16T17:05:29.351Z,16.90
2018-04-16T17:08:02.949Z,16.90
2018-04-16T17:10:36.688Z,16.85
2018-04-16T17:13:10.228Z,16.81
2018-04-16T17:15:43.860Z,16.71
2018-04-16T17:18:18.396Z,16.77
2018-04-16T17:20:54.985Z,16.64
2018-04-16T17:23:28.661Z,16.62
2018-04-16T17:26:02.306Z,16.44
2018-04-16T17:28:35.955Z,16.37
2018-04-16T17:31:09.684Z,16.32
2018-04-16T17:33:43.211Z,16.31
2018-04-16T17:36:16.817Z,16.20
2018-04-16T17:38:50.552Z,16.11
2018-04-16T17:41:24.308Z,15.98
2018-04-16T17:43:57.915Z,15.89
2018-04-16T17:46:31.562Z,15.74
2018-04-16T17:49:05.285Z,15.53
2018-04-16T17:51:39.012Z,15.40
2018-04-16T17:54:12.764Z,15.29
2018-04-16T17:56:46.523Z,15.23
2018-04-16T17:59:20.101Z,15.12
2018-04-16T18:01:54.167Z,15.09
2018-04-16T18:04:27.887Z,15.08
2018-04-16T18:07:01.415Z,15.05
2018-04-16T18:09:35.036Z,15.04
2018-04-16T18:12:08.640Z,15.01
2018-04-16T18:14:42.263Z,14.96
2018-04-16T18:17:15.999Z,14.90
2018-04-16T18:19:49.790Z,14.80
2018-04-16T18:22:23.597Z,14.70
2018-04-16T18:24:57.385Z,14.65
2018-04-16T18:27:30.886Z,14.56
2018-04-16T18:30:04.540Z,14.45
2018-04-16T18:32:38.024Z,14.33
2018-04-16T18:35:11.712Z,14.21
2018-04-16T18:37:45.280Z,14.04
2018-04-16T18:40:18.898Z,13.97
2018-04-16T18:42:52.428Z,13.91
2018-04-16T18:45:25.993Z,13.94
2018-04-16T18:47:59.678Z,13.94
2018-04-16T18:50:33.287Z,13.89
2018-04-16T18:53:06.983Z,13.80
2018-04-16T18:55:40.518Z,13.74
2018-04-16T18:58:14.248Z,13.68
2018-04-16T19:00:47.922Z,13.65
2018-04-16T19:03:21.476Z,13.54
2018-04-16T19:06:12.429Z,13.42
2018-04-16T19:08:46.105Z,13.31
2018-04-16T19:11:19.772Z,13.26
2018-04-16T19:13:53.352Z,13.20
2018-04-16T19:16:27.037Z,13.12
2018-04-16T19:19:00.898Z,13.12
2018-04-16T19:21:39.996Z,13.06
2018-04-16T19:24:13.568Z,12.92
2018-04-16T19:26:52.871Z,12.82
2018-04-16T19:29:26.569Z,12.68
2018-04-16T19:32:00.277Z,12.60
2018-04-16T19:34:39.704Z,12.58
2018-04-16T19:37:13.396Z,12.64
2018-04-16T19:39:46.944Z,12.62
2018-04-16T19:42:26.048Z,12.56
2018-04-16T19:44:59.857Z,12.41
2018-04-16T19:47:33.499Z,12.31
2018-04-16T19:50:07.077Z,12.21
2018-04-16T19:52:40.603Z,12.09
2018-04-16T19:55:14.228Z,11.95
2018-04-16T19:57:53.374Z,11.84
2018-04-16T20:00:27.153Z,11.77
2018-04-16T20:06:03.720Z,11.64
2018-04-16T20:08:37.402Z,11.60
2018-04-16T20:11:10.952Z,11.56
2018-04-16T20:13:44.637Z,11.55
2018-04-16T20:16:18.206Z,11.49
2018-04-16T20:18:51.844Z,11.44
2018-04-16T20:21:25.558Z,11.42
2018-04-16T20:23:59.257Z,11.36
2018-04-16T20:26:32.762Z,11.32
2018-04-16T20:29:06.437Z,11.31
2018-04-16T20:31:40.245Z,11.32
2018-04-16T20:34:13.755Z,11.32
2018-04-16T20:36:47.378Z,11.32
2018-04-16T20:39:21.048Z,11.27
2018-04-16T20:41:54.748Z,11.22
2018-04-16T20:44:28.304Z,11.18
2018-04-16T20:47:01.880Z,11.21
2018-04-16T20:49:35.422Z,11.20
2018-04-16T20:52:09.134Z,11.21
2018-04-16T20:54:42.765Z,11.16
2018-04-16T20:57:16.360Z,11.15
2018-04-16T20:59:49.953Z,11.20
2018-04-16T21:02:23.459Z,11.19
2018-04-16T21:04:57.251Z,11.19
2018-04-16T21:10:10.119Z,11.10
2018-04-16T21:12:43.986Z,11.08
2018-04-16T21:15:17.616Z,11.02
2018-04-16T21:17:51.251Z,10.94
2018-04-16T21:20:24.863Z,10.84
2018-04-16T21:22:58.500Z,10.79
2018-04-16T21:25:32.363Z,10.74
2018-04-16T21:28:06.148Z,10.69
2018-04-16T21:30:39.862Z,10.63
2018-04-16T21:33:13.495Z,10.58
2018-04-16T21:35:47.311Z,10.56
2018-04-16T21:38:20.979Z,10.56
2018-04-16T21:40:54.693Z,10.50
2018-04-16T21:43:28.584Z,10.53
2018-04-16T21:46:02.423Z,10.52
2018-04-16T21:48:36.017Z,10.60
2018-04-16T21:51:09.903Z,10.66
2018-04-16T21:53:43.711Z,10.69
2018-04-16T21:56:17.565Z,10.69
2018-04-16T21:58:51.208Z,10.77
2018-04-16T22:01:25.022Z,10.76
2018-04-16T22:03:58.860Z,10.78
2018-04-16T22:06:32.584Z,10.87
2018-04-16T22:09:06.204Z,10.92
2018-04-16T22:11:39.963Z,10.98
2018-04-16T22:14:13.756Z,10.99
2018-04-16T22:16:47.539Z,11.03
2018-04-16T22:19:21.305Z,11.03
2018-04-16T22:21:54.991Z,11.02
2018-04-16T22:24:29.015Z,11.02
2018-04-16T22:27:02.717Z,11.06
2018-04-16T22:29:36.574Z,11.03
2018-04-16T22:34:50.480Z,10.97
2018-04-16T22:37:24.240Z,10.91
2018-04-16T22:39:57.877Z,10.92
2018-04-16T22:42:31.745Z,10.93
2018-04-16T22:45:05.405Z,10.88
2018-04-16T22:47:39.127Z,10.90
2018-04-16T22:50:12.876Z,10.93
2018-04-16T22:52:46.687Z,10.91
2018-04-16T22:55:20.745Z,10.90
2018-04-16T22:57:54.436Z,10.93
2018-04-16T23:00:28.127Z,10.91
2018-04-16T23:03:02.019Z,10.85
2018-04-16T23:05:35.817Z,10.74
2018-04-16T23:08:09.554Z,10.69
2018-04-16T23:10:43.169Z,10.70
2018-04-16T23:13:16.843Z,10.66
2018-04-16T23:15:50.683Z,10.77
2018-04-16T23:18:24.483Z,10.82
2018-04-16T23:20:58.271Z,10.88
2018-04-16T23:23:32.150Z,10.84
2018-04-16T23:26:05.752Z,10.88
2018-04-16T23:28:39.487Z,10.91
2018-04-16T23:31:13.199Z,10.93
2018-04-16T23:33:47.091Z,11.04
2018-04-16T23:36:20.803Z,10.99
2018-04-16T23:38:54.611Z,11.04
2018-04-16T23:41:28.184Z,10.97
2018-04-16T23:44:01.805Z,10.92
2018-04-16T23:46:35.516Z,10.86
2018-04-16T23:49:09.319Z,10.73
2018-04-16T23:51:43.127Z,10.62
2018-04-16T23:54:16.879Z,10.61
2018-04-16T23:56:50.560Z,10.65
2018-04-16T23:59:24.315Z,10.65
